sensor_id;sensor_type;location;lat;lon;timestamp;temperature;humidity
13856;DHT22;6998;53.608;9.958;2023-03-23T00:01:57;11.30;99.90
13856;DHT22;6998;53.608;9.958;2023-03-23T00:04:24;11.30;99.90
13856;DHT22;6998;53.608;9.958;2023-03-23T00:06:52;11.20;99.90
13856;DHT22;6998;53.608;9.958;2023-03-23T00:09:19;11.20;99.90
13856;DHT22;6998;53.608;9.958;2023-03-23T00:11:50;11.30;99.90
13856;DHT22;6998;53.608;9.958;2023-03-23T00:14:22;11.20;99.90
13856;DHT22;6998;53.608;9.958;2023-03-23T00:16:51;11.20;99.90
13856;DHT22;6998;53.608;9.958;2023-03-23T00:19:18;11.20;99.90
13856;DHT22;6998;53.608;9.958;2023-03-23T00:21:46;11.20;99.90
13856;DHT22;6998;53.608;9.958;2023-03-23T00:24:14;11.20;99.90
13856;DHT22;6998;53.608;9.958;2023-03-23T00:26:44;11.10;99.90
13856;DHT22;6998;53.608;9.958;2023-03-23T00:29:13;11.10;99.90
13856;DHT22;6998;53.608;9.958;2023-03-23T00:31:40;11.10;99.90
13856;DHT22;6998;53.608;9.958;2023-03-23T00:34:14;11.10;99.90
13856;DHT22;6998;53.608;9.958;2023-03-23T00:36:44;11.10;99.90
13856;DHT22;6998;53.608;9.958;2023-03-23T00:39:12;11.10;99.90
13856;DHT22;6998;53.608;9.958;2023-03-23T00:41:41;11.00;99.90
13856;DHT22;6998;53.608;9.958;2023-03-23T00:44:08;11.10;99.90
13856;DHT22;6998;53.608;9.958;2023-03-23T00:46:35;11.10;99.90
13856;DHT22;6998;53.608;9.958;2023-03-23T00:49:10;11.00;99.90
13856;DHT22;6998;53.608;9.958;2023-03-23T00:51:39;11.00;99.90
13856;DHT22;6998;53.608;9.958;2023-03-23T00:54:07;11.00;99.90
13856;DHT22;6998;53.608;9.958;2023-03-23T00:56:34;11.00;99.90
13856;DHT22;6998;53.608;9.958;2023-03-23T00:59:01;11.00;99.90
13856;DHT22;6998;53.608;9.958;2023-03-23T01:01:28;10.90;99.90
13856;DHT22;6998;53.608;9.958;2023-03-23T01:03:55;11.00;99.90
13856;DHT22;6998;53.608;9.958;2023-03-23T01:06:26;11.00;99.90
13856;DHT22;6998;53.608;9.958;2023-03-23T01:08:55;11.10;99.90
13856;DHT22;6998;53.608;9.958;2023-03-23T01:11:22;11.10;99.90
13856;DHT22;6998;53.608;9.958;2023-03-23T01:13:49;11.10;99.90
13856;DHT22;6998;53.608;9.958;2023-03-23T01:16:16;11.10;99.90
13856;DHT22;6998;53.608;9.958;2023-03-23T01:18:43;11.10;99.90
13856;DHT22;6998;53.608;9.958;2023-03-23T01:21:12;11.10;99.90
13856;DHT22;6998;53.608;9.958;2023-03-23T01:23:39;11.00;99.90
13856;DHT22;6998;53.608;9.958;2023-03-23T01:26:10;11.00;99.90
13856;DHT22;6998;53.608;9.958;2023-03-23T01:28:37;11.10;99.90
13856;DHT22;6998;53.608;9.958;2023-03-23T01:31:07;11.10;99.90
13856;DHT22;6998;53.608;9.958;2023-03-23T01:33:34;11.10;99.90
13856;DHT22;6998;53.608;9.958;2023-03-23T01:36:04;11.10;99.90
13856;DHT22;6998;53.608;9.958;2023-03-23T01:38:31;11.00;99.90
13856;DHT22;6998;53.608;9.958;2023-03-23T01:40:58;11.10;99.90
13856;DHT22;6998;53.608;9.958;2023-03-23T01:43:27;11.10;99.90
13856;DHT22;6998;53.608;9.958;2023-03-23T01:45:54;11.10;99.90
13856;DHT22;6998;53.608;9.958;2023-03-23T01:48:24;11.10;99.90
13856;DHT22;6998;53.608;9.958;2023-03-23T01:50:56;11.10;99.90
13856;DHT22;6998;53.608;9.958;2023-03-23T01:53:27;11.00;99.90
13856;DHT22;6998;53.608;9.958;2023-03-23T01:55:57;11.10;99.90
13856;DHT22;6998;53.608;9.958;2023-03-23T01:58:29;11.10;99.90
13856;DHT22;6998;53.608;9.958;2023-03-23T02:00:58;11.00;99.90
13856;DHT22;6998;53.608;9.958;2023-03-23T02:03:27;11.00;99.90
13856;DHT22;6998;53.608;9.958;2023-03-23T02:05:55;11.00;99.90
13856;DHT22;6998;53.608;9.958;2023-03-23T02:08:24;11.00;99.90
13856;DHT22;6998;53.608;9.958;2023-03-23T02:10:52;11.00;99.90
13856;DHT22;6998;53.608;9.958;2023-03-23T02:13:19;11.10;99.90
13856;DHT22;6998;53.608;9.958;2023-03-23T02:15:53;11.10;99.90
13856;DHT22;6998;53.608;9.958;2023-03-23T02:18:31;11.10;99.90
13856;DHT22;6998;53.608;9.958;2023-03-23T02:24:16;11.20;99.90
13856;DHT22;6998;53.608;9.958;2023-03-23T02:26:53;11.20;99.90
13856;DHT22;6998;53.608;9.958;2023-03-23T02:29:52;11.10;99.90
13856;DHT22;6998;53.608;9.958;2023-03-23T02:32:46;11.10;99.90
13856;DHT22;6998;53.608;9.958;2023-03-23T02:35:24;11.10;99.90
13856;DHT22;6998;53.608;9.958;2023-03-23T02:37:58;11.20;99.90
13856;DHT22;6998;53.608;9.958;2023-03-23T02:40:30;11.20;99.90
13856;DHT22;6998;53.608;9.958;2023-03-23T02:42:59;11.10;99.90
13856;DHT22;6998;53.608;9.958;2023-03-23T02:45:28;11.10;99.90
13856;DHT22;6998;53.608;9.958;2023-03-23T02:47:56;11.10;99.90
13856;DHT22;6998;53.608;9.958;2023-03-23T02:50:27;11.20;99.90
13856;DHT22;6998;53.608;9.958;2023-03-23T02:52:55;11.20;99.90
13856;DHT22;6998;53.608;9.958;2023-03-23T02:55:24;11.10;99.90
13856;DHT22;6998;53.608;9.958;2023-03-23T02:57:54;11.20;99.90
13856;DHT22;6998;53.608;9.958;2023-03-23T03:00:21;11.20;99.90
13856;DHT22;6998;53.608;9.958;2023-03-23T03:02:50;11.20;99.90
13856;DHT22;6998;53.608;9.958;2023-03-23T03:05:28;11.20;99.90
13856;DHT22;6998;53.608;9.958;2023-03-23T03:08:06;11.20;99.90
13856;DHT22;6998;53.608;9.958;2023-03-23T03:10:40;11.10;99.90
13856;DHT22;6998;53.608;9.958;2023-03-23T03:13:14;11.10;99.90
13856;DHT22;6998;53.608;9.958;2023-03-23T03:15:47;11.10;99.90
13856;DHT22;6998;53.608;9.958;2023-03-23T03:18:20;11.10;99.90
13856;DHT22;6998;53.608;9.958;2023-03-23T03:20:54;11.10;99.90
13856;DHT22;6998;53.608;9.958;2023-03-23T03:23:24;11.10;99.90
13856;DHT22;6998;53.608;9.958;2023-03-23T03:25:52;11.00;99.90
13856;DHT22;6998;53.608;9.958;2023-03-23T03:28:23;11.10;99.90
13856;DHT22;6998;53.608;9.958;2023-03-23T03:30:54;11.10;99.90
13856;DHT22;6998;53.608;9.958;2023-03-23T03:33:23;11.10;99.90
13856;DHT22;6998;53.608;9.958;2023-03-23T03:35:54;11.10;99.90
13856;DHT22;6998;53.608;9.958;2023-03-23T03:38:21;11.00;99.90
13856;DHT22;6998;53.608;9.958;2023-03-23T03:40:48;11.00;99.90
13856;DHT22;6998;53.608;9.958;2023-03-23T03:43:15;11.10;99.90
13856;DHT22;6998;53.608;9.958;2023-03-23T03:45:42;11.00;99.90
13856;DHT22;6998;53.608;9.958;2023-03-23T03:48:10;11.00;99.90
13856;DHT22;6998;53.608;9.958;2023-03-23T03:50:37;11.00;99.90
13856;DHT22;6998;53.608;9.958;2023-03-23T03:53:06;11.10;99.90
13856;DHT22;6998;53.608;9.958;2023-03-23T03:55:33;11.10;99.90
13856;DHT22;6998;53.608;9.958;2023-03-23T03:58:01;11.20;99.90
13856;DHT22;6998;53.608;9.958;2023-03-23T04:00:29;11.20;99.90
13856;DHT22;6998;53.608;9.958;2023-03-23T04:02:56;11.20;99.90
13856;DHT22;6998;53.608;9.958;2023-03-23T04:05:25;11.20;99.90
13856;DHT22;6998;53.608;9.958;2023-03-23T04:07:54;11.10;99.90
13856;DHT22;6998;53.608;9.958;2023-03-23T04:10:29;11.30;99.90
13856;DHT22;6998;53.608;9.958;2023-03-23T04:12:56;11.30;99.90
13856;DHT22;6998;53.608;9.958;2023-03-23T04:15:23;11.30;99.90
13856;DHT22;6998;53.608;9.958;2023-03-23T04:17:50;11.30;99.90
13856;DHT22;6998;53.608;9.958;2023-03-23T04:20:17;11.40;99.90
13856;DHT22;6998;53.608;9.958;2023-03-23T04:22:44;11.30;99.90
13856;DHT22;6998;53.608;9.958;2023-03-23T04:25:15;11.30;99.90
13856;DHT22;6998;53.608;9.958;2023-03-23T04:27:44;11.30;99.90
13856;DHT22;6998;53.608;9.958;2023-03-23T04:30:12;11.30;99.90
13856;DHT22;6998;53.608;9.958;2023-03-23T04:32:40;11.30;99.90
13856;DHT22;6998;53.608;9.958;2023-03-23T04:35:09;11.30;99.90
13856;DHT22;6998;53.608;9.958;2023-03-23T04:37:37;11.30;99.90
13856;DHT22;6998;53.608;9.958;2023-03-23T04:40:05;11.20;99.90
13856;DHT22;6998;53.608;9.958;2023-03-23T04:42:37;11.10;99.90
13856;DHT22;6998;53.608;9.958;2023-03-23T04:45:13;11.10;99.90
13856;DHT22;6998;53.608;9.958;2023-03-23T04:47:41;11.10;99.90
13856;DHT22;6998;53.608;9.958;2023-03-23T04:50:14;11.10;99.90
13856;DHT22;6998;53.608;9.958;2023-03-23T04:52:42;11.10;99.90
13856;DHT22;6998;53.608;9.958;2023-03-23T04:55:10;11.10;99.90
13856;DHT22;6998;53.608;9.958;2023-03-23T04:57:38;11.10;99.90
13856;DHT22;6998;53.608;9.958;2023-03-23T05:00:06;11.10;99.90
13856;DHT22;6998;53.608;9.958;2023-03-23T05:02:35;11.20;99.90
13856;DHT22;6998;53.608;9.958;2023-03-23T05:05:05;11.20;99.90
13856;DHT22;6998;53.608;9.958;2023-03-23T05:07:32;11.10;99.90
13856;DHT22;6998;53.608;9.958;2023-03-23T05:09:59;11.20;99.90
13856;DHT22;6998;53.608;9.958;2023-03-23T05:12:26;11.10;99.90
13856;DHT22;6998;53.608;9.958;2023-03-23T05:14:53;11.10;99.90
13856;DHT22;6998;53.608;9.958;2023-03-23T05:17:20;11.20;99.90
13856;DHT22;6998;53.608;9.958;2023-03-23T05:19:50;11.20;99.90
13856;DHT22;6998;53.608;9.958;2023-03-23T05:22:17;11.30;99.90
13856;DHT22;6998;53.608;9.958;2023-03-23T05:24:46;11.30;99.90
13856;DHT22;6998;53.608;9.958;2023-03-23T05:27:13;11.40;99.90
13856;DHT22;6998;53.608;9.958;2023-03-23T05:29:43;11.40;99.90
13856;DHT22;6998;53.608;9.958;2023-03-23T05:32:11;11.40;99.90
13856;DHT22;6998;53.608;9.958;2023-03-23T05:34:38;11.40;99.90
13856;DHT22;6998;53.608;9.958;2023-03-23T05:37:14;11.30;99.90
13856;DHT22;6998;53.608;9.958;2023-03-23T05:39:41;11.30;99.90
13856;DHT22;6998;53.608;9.958;2023-03-23T05:42:08;11.30;99.90
13856;DHT22;6998;53.608;9.958;2023-03-23T05:44:35;11.40;99.90
13856;DHT22;6998;53.608;9.958;2023-03-23T05:47:02;11.30;99.90
13856;DHT22;6998;53.608;9.958;2023-03-23T05:49:29;11.30;99.90
13856;DHT22;6998;53.608;9.958;2023-03-23T05:51:57;11.30;99.90
13856;DHT22;6998;53.608;9.958;2023-03-23T05:54:25;11.30;99.90
13856;DHT22;6998;53.608;9.958;2023-03-23T05:56:52;11.20;99.90
13856;DHT22;6998;53.608;9.958;2023-03-23T05:59:23;11.20;99.90
13856;DHT22;6998;53.608;9.958;2023-03-23T06:01:53;11.10;99.90
13856;DHT22;6998;53.608;9.958;2023-03-23T06:04:20;11.10;99.90
13856;DHT22;6998;53.608;9.958;2023-03-23T06:06:50;11.10;99.90
13856;DHT22;6998;53.608;9.958;2023-03-23T06:09:18;11.10;99.90
13856;DHT22;6998;53.608;9.958;2023-03-23T06:11:46;11.10;99.90
13856;DHT22;6998;53.608;9.958;2023-03-23T06:14:16;11.10;99.90
13856;DHT22;6998;53.608;9.958;2023-03-23T06:16:43;11.10;99.90
13856;DHT22;6998;53.608;9.958;2023-03-23T06:19:12;11.10;99.90
13856;DHT22;6998;53.608;9.958;2023-03-23T06:21:40;11.00;99.90
13856;DHT22;6998;53.608;9.958;2023-03-23T06:24:07;11.00;99.90
13856;DHT22;6998;53.608;9.958;2023-03-23T06:26:39;11.00;99.90
13856;DHT22;6998;53.608;9.958;2023-03-23T06:29:08;11.10;99.90
13856;DHT22;6998;53.608;9.958;2023-03-23T06:31:38;11.10;99.90
13856;DHT22;6998;53.608;9.958;2023-03-23T06:34:07;11.10;99.90
13856;DHT22;6998;53.608;9.958;2023-03-23T06:36:34;11.10;99.90
13856;DHT22;6998;53.608;9.958;2023-03-23T06:39:01;11.10;99.90
13856;DHT22;6998;53.608;9.958;2023-03-23T06:41:30;11.20;99.90
13856;DHT22;6998;53.608;9.958;2023-03-23T06:43:57;11.20;99.90
13856;DHT22;6998;53.608;9.958;2023-03-23T06:46:25;11.30;99.90
13856;DHT22;6998;53.608;9.958;2023-03-23T06:48:52;11.50;99.90
13856;DHT22;6998;53.608;9.958;2023-03-23T06:51:19;11.60;99.90
13856;DHT22;6998;53.608;9.958;2023-03-23T06:53:49;11.70;99.90
13856;DHT22;6998;53.608;9.958;2023-03-23T06:56:21;11.80;99.90
13856;DHT22;6998;53.608;9.958;2023-03-23T06:58:48;11.80;99.90
13856;DHT22;6998;53.608;9.958;2023-03-23T07:01:22;11.80;99.90
13856;DHT22;6998;53.608;9.958;2023-03-23T07:04:09;11.90;99.90
13856;DHT22;6998;53.608;9.958;2023-03-23T07:06:36;12.00;99.90
13856;DHT22;6998;53.608;9.958;2023-03-23T07:09:03;12.00;99.90
13856;DHT22;6998;53.608;9.958;2023-03-23T07:11:30;12.10;99.90
13856;DHT22;6998;53.608;9.958;2023-03-23T07:13:57;12.10;99.90
13856;DHT22;6998;53.608;9.958;2023-03-23T07:16:24;12.10;99.90
13856;DHT22;6998;53.608;9.958;2023-03-23T07:18:51;12.10;99.90
13856;DHT22;6998;53.608;9.958;2023-03-23T07:21:20;12.20;99.90
13856;DHT22;6998;53.608;9.958;2023-03-23T07:23:49;12.20;99.90
13856;DHT22;6998;53.608;9.958;2023-03-23T07:26:19;12.20;99.90
13856;DHT22;6998;53.608;9.958;2023-03-23T07:29:13;12.20;99.90
13856;DHT22;6998;53.608;9.958;2023-03-23T07:31:42;12.50;99.90
13856;DHT22;6998;53.608;9.958;2023-03-23T07:34:09;12.30;99.90
13856;DHT22;6998;53.608;9.958;2023-03-23T07:39:48;12.60;99.90
13856;DHT22;6998;53.608;9.958;2023-03-23T07:45:16;12.70;99.90
13856;DHT22;6998;53.608;9.958;2023-03-23T07:47:43;12.70;99.90
13856;DHT22;6998;53.608;9.958;2023-03-23T07:50:10;12.70;99.90
13856;DHT22;6998;53.608;9.958;2023-03-23T07:52:38;12.60;99.90
13856;DHT22;6998;53.608;9.958;2023-03-23T07:55:10;12.60;99.90
13856;DHT22;6998;53.608;9.958;2023-03-23T07:57:42;12.40;99.90
13856;DHT22;6998;53.608;9.958;2023-03-23T08:00:10;12.30;99.90
13856;DHT22;6998;53.608;9.958;2023-03-23T08:02:40;12.20;99.90
13856;DHT22;6998;53.608;9.958;2023-03-23T08:05:08;12.20;99.90
13856;DHT22;6998;53.608;9.958;2023-03-23T08:07:38;12.10;99.90
13856;DHT22;6998;53.608;9.958;2023-03-23T08:10:08;12.10;99.90
13856;DHT22;6998;53.608;9.958;2023-03-23T08:12:37;12.20;99.90
13856;DHT22;6998;53.608;9.958;2023-03-23T08:15:05;12.00;99.90
13856;DHT22;6998;53.608;9.958;2023-03-23T08:17:33;11.90;99.90
13856;DHT22;6998;53.608;9.958;2023-03-23T08:20:01;11.70;99.90
13856;DHT22;6998;53.608;9.958;2023-03-23T08:22:36;11.60;99.90
13856;DHT22;6998;53.608;9.958;2023-03-23T08:25:04;11.30;99.90
13856;DHT22;6998;53.608;9.958;2023-03-23T08:27:38;11.20;99.90
13856;DHT22;6998;53.608;9.958;2023-03-23T08:43:53;11.00;99.90
13856;DHT22;6998;53.608;9.958;2023-03-23T08:46:38;11.10;99.90
13856;DHT22;6998;53.608;9.958;2023-03-23T08:49:11;11.30;99.90
13856;DHT22;6998;53.608;9.958;2023-03-23T08:55:36;11.60;99.90
13856;DHT22;6998;53.608;9.958;2023-03-23T09:05:18;12.10;99.90
13856;DHT22;6998;53.608;9.958;2023-03-23T09:08:15;12.30;99.90
13856;DHT22;6998;53.608;9.958;2023-03-23T09:11:09;12.40;99.90
13856;DHT22;6998;53.608;9.958;2023-03-23T09:14:02;12.30;99.90
13856;DHT22;6998;53.608;9.958;2023-03-23T09:16:49;12.40;99.90
13856;DHT22;6998;53.608;9.958;2023-03-23T09:19:19;12.40;99.90
13856;DHT22;6998;53.608;9.958;2023-03-23T09:22:24;12.30;99.90
13856;DHT22;6998;53.608;9.958;2023-03-23T09:25:08;12.20;99.90
13856;DHT22;6998;53.608;9.958;2023-03-23T09:27:37;12.20;99.90
13856;DHT22;6998;53.608;9.958;2023-03-23T09:33:13;12.30;99.90
13856;DHT22;6998;53.608;9.958;2023-03-23T09:35:45;12.40;99.90
13856;DHT22;6998;53.608;9.958;2023-03-23T09:38:15;12.40;99.90
13856;DHT22;6998;53.608;9.958;2023-03-23T09:40:45;12.50;99.90
13856;DHT22;6998;53.608;9.958;2023-03-23T09:43:33;12.60;99.90
13856;DHT22;6998;53.608;9.958;2023-03-23T09:46:30;12.70;99.90
13856;DHT22;6998;53.608;9.958;2023-03-23T09:52:21;12.90;99.90
13856;DHT22;6998;53.608;9.958;2023-03-23T09:55:54;12.90;99.90
13856;DHT22;6998;53.608;9.958;2023-03-23T09:58:26;13.00;99.90
13856;DHT22;6998;53.608;9.958;2023-03-23T10:01:23;13.20;99.90
13856;DHT22;6998;53.608;9.958;2023-03-23T10:04:55;13.30;99.90
13856;DHT22;6998;53.608;9.958;2023-03-23T10:07:44;13.40;99.90
13856;DHT22;6998;53.608;9.958;2023-03-23T10:10:54;13.50;99.90
13856;DHT22;6998;53.608;9.958;2023-03-23T10:14:14;13.60;99.90
13856;DHT22;6998;53.608;9.958;2023-03-23T10:17:13;13.80;99.90
13856;DHT22;6998;53.608;9.958;2023-03-23T10:19:53;13.80;99.90
13856;DHT22;6998;53.608;9.958;2023-03-23T10:22:39;14.00;99.90
13856;DHT22;6998;53.608;9.958;2023-03-23T10:25:16;14.20;99.90
13856;DHT22;6998;53.608;9.958;2023-03-23T10:27:55;14.30;99.90
13856;DHT22;6998;53.608;9.958;2023-03-23T10:30:30;14.70;99.90
13856;DHT22;6998;53.608;9.958;2023-03-23T10:33:02;14.40;99.90
13856;DHT22;6998;53.608;9.958;2023-03-23T10:35:33;14.40;99.90
13856;DHT22;6998;53.608;9.958;2023-03-23T10:38:05;14.60;99.90
13856;DHT22;6998;53.608;9.958;2023-03-23T10:40:43;14.40;99.90
13856;DHT22;6998;53.608;9.958;2023-03-23T10:43:14;14.40;99.90
13856;DHT22;6998;53.608;9.958;2023-03-23T10:45:43;14.50;99.90
13856;DHT22;6998;53.608;9.958;2023-03-23T10:48:14;14.30;99.90
13856;DHT22;6998;53.608;9.958;2023-03-23T10:50:44;14.40;99.90
13856;DHT22;6998;53.608;9.958;2023-03-23T10:53:17;14.20;99.90
13856;DHT22;6998;53.608;9.958;2023-03-23T10:55:46;14.10;99.90
13856;DHT22;6998;53.608;9.958;2023-03-23T10:58:25;14.10;99.90
13856;DHT22;6998;53.608;9.958;2023-03-23T11:00:54;14.00;99.90
13856;DHT22;6998;53.608;9.958;2023-03-23T11:03:25;14.10;99.90
13856;DHT22;6998;53.608;9.958;2023-03-23T11:05:56;14.10;99.90
13856;DHT22;6998;53.608;9.958;2023-03-23T11:58:00;14.90;99.90
13856;DHT22;6998;53.608;9.958;2023-03-23T12:11:17;14.70;99.90
13856;DHT22;6998;53.608;9.958;2023-03-23T12:21:18;14.50;99.90
13856;DHT22;6998;53.608;9.958;2023-03-23T12:50:11;14.50;99.90
13856;DHT22;6998;53.608;9.958;2023-03-23T13:26:36;16.10;99.90
13856;DHT22;6998;53.608;9.958;2023-03-23T13:29:34;16.20;99.90
13856;DHT22;6998;53.608;9.958;2023-03-23T13:35:11;16.20;99.90
13856;DHT22;6998;53.608;9.958;2023-03-23T13:37:47;16.10;99.90
13856;DHT22;6998;53.608;9.958;2023-03-23T13:40:42;16.10;99.90
13856;DHT22;6998;53.608;9.958;2023-03-23T13:43:29;15.90;99.90
13856;DHT22;6998;53.608;9.958;2023-03-23T13:46:22;15.70;99.90
13856;DHT22;6998;53.608;9.958;2023-03-23T13:49:13;15.50;99.90
13856;DHT22;6998;53.608;9.958;2023-03-23T13:52:18;15.20;99.90
13856;DHT22;6998;53.608;9.958;2023-03-23T13:54:49;14.90;99.90
13856;DHT22;6998;53.608;9.958;2023-03-23T13:57:26;14.80;99.90
13856;DHT22;6998;53.608;9.958;2023-03-23T14:00:08;14.20;99.90
13856;DHT22;6998;53.608;9.958;2023-03-23T14:02:38;13.00;99.90
13856;DHT22;6998;53.608;9.958;2023-03-23T14:05:10;12.20;99.90
13856;DHT22;6998;53.608;9.958;2023-03-23T14:07:55;11.50;99.90
13856;DHT22;6998;53.608;9.958;2023-03-23T14:10:30;11.40;99.90
13856;DHT22;6998;53.608;9.958;2023-03-23T14:12:59;11.20;99.90
13856;DHT22;6998;53.608;9.958;2023-03-23T14:15:30;11.10;99.90
13856;DHT22;6998;53.608;9.958;2023-03-23T14:18:02;11.10;99.90
13856;DHT22;6998;53.608;9.958;2023-03-23T14:20:31;11.10;99.90
13856;DHT22;6998;53.608;9.958;2023-03-23T14:23:00;11.20;99.90
13856;DHT22;6998;53.608;9.958;2023-03-23T14:25:29;11.30;99.90
13856;DHT22;6998;53.608;9.958;2023-03-23T14:27:57;11.50;99.90
13856;DHT22;6998;53.608;9.958;2023-03-23T14:30:26;11.60;99.90
13856;DHT22;6998;53.608;9.958;2023-03-23T14:33:03;11.80;99.90
13856;DHT22;6998;53.608;9.958;2023-03-23T14:35:35;12.20;99.90
13856;DHT22;6998;53.608;9.958;2023-03-23T14:38:11;12.30;99.90
13856;DHT22;6998;53.608;9.958;2023-03-23T14:40:42;12.40;99.90
13856;DHT22;6998;53.608;9.958;2023-03-23T14:43:11;12.50;99.90
13856;DHT22;6998;53.608;9.958;2023-03-23T14:45:42;12.60;99.90
13856;DHT22;6998;53.608;9.958;2023-03-23T14:48:14;12.70;99.90
13856;DHT22;6998;53.608;9.958;2023-03-23T14:50:51;12.80;99.90
13856;DHT22;6998;53.608;9.958;2023-03-23T14:53:22;12.60;99.90
13856;DHT22;6998;53.608;9.958;2023-03-23T14:55:51;12.60;99.90
13856;DHT22;6998;53.608;9.958;2023-03-23T14:58:20;12.70;99.90
13856;DHT22;6998;53.608;9.958;2023-03-23T15:00:53;12.70;99.90
13856;DHT22;6998;53.608;9.958;2023-03-23T15:03:24;12.70;99.90
13856;DHT22;6998;53.608;9.958;2023-03-23T15:05:53;12.70;99.90
13856;DHT22;6998;53.608;9.958;2023-03-23T15:08:24;12.80;99.90
13856;DHT22;6998;53.608;9.958;2023-03-23T15:11:12;12.80;99.90
13856;DHT22;6998;53.608;9.958;2023-03-23T15:13:44;12.60;99.90
13856;DHT22;6998;53.608;9.958;2023-03-23T15:16:32;12.60;99.90
13856;DHT22;6998;53.608;9.958;2023-03-23T15:19:03;12.70;99.90
13856;DHT22;6998;53.608;9.958;2023-03-23T15:21:32;12.60;99.90
13856;DHT22;6998;53.608;9.958;2023-03-23T15:24:01;12.70;99.90
13856;DHT22;6998;53.608;9.958;2023-03-23T15:26:32;12.60;99.90
13856;DHT22;6998;53.608;9.958;2023-03-23T15:29:14;12.60;99.90
13856;DHT22;6998;53.608;9.958;2023-03-23T15:31:44;12.60;99.90
13856;DHT22;6998;53.608;9.958;2023-03-23T15:34:21;12.60;99.90
13856;DHT22;6998;53.608;9.958;2023-03-23T15:36:54;12.50;99.90
13856;DHT22;6998;53.608;9.958;2023-03-23T15:39:22;12.50;99.90
13856;DHT22;6998;53.608;9.958;2023-03-23T15:41:50;12.40;99.90
13856;DHT22;6998;53.608;9.958;2023-03-23T15:44:23;12.30;99.90
13856;DHT22;6998;53.608;9.958;2023-03-23T15:46:52;12.20;99.90
13856;DHT22;6998;53.608;9.958;2023-03-23T15:49:23;12.20;99.90
13856;DHT22;6998;53.608;9.958;2023-03-23T15:51:51;12.10;99.90
13856;DHT22;6998;53.608;9.958;2023-03-23T15:54:17;12.50;99.90
13856;DHT22;6998;53.608;9.958;2023-03-23T15:56:48;12.10;99.90
13856;DHT22;6998;53.608;9.958;2023-03-23T15:59:15;12.00;99.90
13856;DHT22;6998;53.608;9.958;2023-03-23T16:01:42;12.00;99.90
13856;DHT22;6998;53.608;9.958;2023-03-23T16:04:12;12.00;99.90
13856;DHT22;6998;53.608;9.958;2023-03-23T16:06:42;12.10;99.90
13856;DHT22;6998;53.608;9.958;2023-03-23T16:09:13;12.40;99.90
13856;DHT22;6998;53.608;9.958;2023-03-23T16:11:40;12.00;99.90
13856;DHT22;6998;53.608;9.958;2023-03-23T16:14:07;12.00;99.90
13856;DHT22;6998;53.608;9.958;2023-03-23T16:16:36;11.90;99.90
13856;DHT22;6998;53.608;9.958;2023-03-23T16:19:04;12.00;99.90
13856;DHT22;6998;53.608;9.958;2023-03-23T16:21:31;12.00;99.90
13856;DHT22;6998;53.608;9.958;2023-03-23T16:23:59;11.70;99.90
13856;DHT22;6998;53.608;9.958;2023-03-23T16:26:26;11.80;99.90
13856;DHT22;6998;53.608;9.958;2023-03-23T16:28:53;11.70;99.90
13856;DHT22;6998;53.608;9.958;2023-03-23T16:31:20;11.80;99.90
13856;DHT22;6998;53.608;9.958;2023-03-23T16:33:49;11.80;99.90
13856;DHT22;6998;53.608;9.958;2023-03-23T16:36:16;11.80;99.90
13856;DHT22;6998;53.608;9.958;2023-03-23T16:38:43;11.70;99.90
13856;DHT22;6998;53.608;9.958;2023-03-23T16:41:11;11.60;99.90
13856;DHT22;6998;53.608;9.958;2023-03-23T16:43:40;11.50;99.90
13856;DHT22;6998;53.608;9.958;2023-03-23T16:46:09;11.50;99.90
13856;DHT22;6998;53.608;9.958;2023-03-23T16:48:40;11.40;99.90
13856;DHT22;6998;53.608;9.958;2023-03-23T16:51:07;11.40;99.90
13856;DHT22;6998;53.608;9.958;2023-03-23T16:53:35;11.50;99.90
13856;DHT22;6998;53.608;9.958;2023-03-23T16:56:02;11.40;99.90
13856;DHT22;6998;53.608;9.958;2023-03-23T16:58:31;11.40;99.90
13856;DHT22;6998;53.608;9.958;2023-03-23T17:00:58;11.30;99.90
13856;DHT22;6998;53.608;9.958;2023-03-23T17:03:30;11.30;99.90
13856;DHT22;6998;53.608;9.958;2023-03-23T17:06:01;11.20;99.90
13856;DHT22;6998;53.608;9.958;2023-03-23T17:08:29;11.30;99.90
13856;DHT22;6998;53.608;9.958;2023-03-23T17:10:56;11.30;99.90
13856;DHT22;6998;53.608;9.958;2023-03-23T17:13:23;11.30;99.90
13856;DHT22;6998;53.608;9.958;2023-03-23T17:15:54;11.30;99.90
13856;DHT22;6998;53.608;9.958;2023-03-23T17:18:22;11.40;99.90
13856;DHT22;6998;53.608;9.958;2023-03-23T17:20:52;11.30;99.90
13856;DHT22;6998;53.608;9.958;2023-03-23T17:23:19;11.30;99.90
13856;DHT22;6998;53.608;9.958;2023-03-23T17:25:47;11.20;99.90
13856;DHT22;6998;53.608;9.958;2023-03-23T17:28:14;11.30;99.90
13856;DHT22;6998;53.608;9.958;2023-03-23T17:30:43;11.20;99.90
13856;DHT22;6998;53.608;9.958;2023-03-23T17:33:12;11.10;99.90
13856;DHT22;6998;53.608;9.958;2023-03-23T17:35:40;11.10;99.90
13856;DHT22;6998;53.608;9.958;2023-03-23T17:38:08;11.00;99.90
13856;DHT22;6998;53.608;9.958;2023-03-23T17:40:35;10.80;99.90
13856;DHT22;6998;53.608;9.958;2023-03-23T17:43:03;10.80;99.90
13856;DHT22;6998;53.608;9.958;2023-03-23T17:45:30;10.70;99.90
13856;DHT22;6998;53.608;9.958;2023-03-23T17:47:57;10.70;99.90
13856;DHT22;6998;53.608;9.958;2023-03-23T17:50:26;10.60;99.90
13856;DHT22;6998;53.608;9.958;2023-03-23T17:52:53;10.60;99.90
13856;DHT22;6998;53.608;9.958;2023-03-23T17:55:21;10.50;99.90
13856;DHT22;6998;53.608;9.958;2023-03-23T17:57:48;10.40;99.90
13856;DHT22;6998;53.608;9.958;2023-03-23T18:00:16;10.40;99.90
13856;DHT22;6998;53.608;9.958;2023-03-23T18:02:43;10.30;99.90
13856;DHT22;6998;53.608;9.958;2023-03-23T18:05:10;10.20;99.90
13856;DHT22;6998;53.608;9.958;2023-03-23T18:07:38;10.20;99.90
13856;DHT22;6998;53.608;9.958;2023-03-23T18:10:06;10.10;99.90
13856;DHT22;6998;53.608;9.958;2023-03-23T18:12:37;10.10;99.90
13856;DHT22;6998;53.608;9.958;2023-03-23T18:15:05;10.00;99.90
13856;DHT22;6998;53.608;9.958;2023-03-23T18:17:32;9.90;99.90
13856;DHT22;6998;53.608;9.958;2023-03-23T18:19:59;10.00;99.90
13856;DHT22;6998;53.608;9.958;2023-03-23T18:22:26;9.90;99.90
13856;DHT22;6998;53.608;9.958;2023-03-23T18:24:54;9.80;99.90
13856;DHT22;6998;53.608;9.958;2023-03-23T18:27:22;9.80;99.90
13856;DHT22;6998;53.608;9.958;2023-03-23T18:29:50;9.80;99.90
13856;DHT22;6998;53.608;9.958;2023-03-23T18:32:17;9.70;99.90
13856;DHT22;6998;53.608;9.958;2023-03-23T18:34:44;9.60;99.90
13856;DHT22;6998;53.608;9.958;2023-03-23T18:37:11;9.60;99.90
13856;DHT22;6998;53.608;9.958;2023-03-23T18:39:38;9.60;99.90
13856;DHT22;6998;53.608;9.958;2023-03-23T18:42:07;9.50;99.90
13856;DHT22;6998;53.608;9.958;2023-03-23T18:44:34;9.50;99.90
13856;DHT22;6998;53.608;9.958;2023-03-23T18:47:01;9.60;99.90
13856;DHT22;6998;53.608;9.958;2023-03-23T18:49:28;9.60;99.90
13856;DHT22;6998;53.608;9.958;2023-03-23T18:51:57;9.60;99.90
13856;DHT22;6998;53.608;9.958;2023-03-23T18:54:25;9.70;99.90
13856;DHT22;6998;53.608;9.958;2023-03-23T18:56:53;9.80;99.90
13856;DHT22;6998;53.608;9.958;2023-03-23T18:59:21;9.90;99.90
13856;DHT22;6998;53.608;9.958;2023-03-23T19:01:50;9.90;99.90
13856;DHT22;6998;53.608;9.958;2023-03-23T19:04:17;9.90;99.90
13856;DHT22;6998;53.608;9.958;2023-03-23T19:06:46;9.80;99.90